createdAt,value
2023-01-27T00:01:00.029Z,32.85
2023-01-27T00:03:27.366Z,29.15
2023-01-27T00:05:54.885Z,34.47
2023-01-27T00:08:22.155Z,31.70
2023-01-27T00:11:09.660Z,30.73
2023-01-27T00:13:36.866Z,33.42
2023-01-27T00:16:04.699Z,31.25
2023-01-27T00:18:31.928Z,31.23
2023-01-27T00:21:18.385Z,31.95
2023-01-27T00:24:04.346Z,30.67
2023-01-27T00:26:31.887Z,31.73
2023-01-27T00:28:59.090Z,26.02
2023-01-27T00:31:45.494Z,31.50
2023-01-27T00:34:12.888Z,31.30
2023-01-27T00:36:42.320Z,32.17
2023-01-27T00:39:11.361Z,28.85
2023-01-27T00:41:40.364Z,31.63
2023-01-27T00:44:12.815Z,32.42
2023-01-27T00:46:41.863Z,29.63
2023-01-27T00:49:10.588Z,29.85
2023-01-27T00:51:38.291Z,27.38
2023-01-27T00:54:06.356Z,28.33
2023-01-27T00:56:34.506Z,31.20
2023-01-27T00:59:01.864Z,31.52
2023-01-27T01:01:30.224Z,30.15
2023-01-27T01:03:58.861Z,29.98
2023-01-27T01:06:27.586Z,29.13
2023-01-27T01:08:57.005Z,32.67
2023-01-27T01:11:25.662Z,30.63
2023-01-27T01:13:55.559Z,31.65
2023-01-27T01:16:24.760Z,30.13
2023-01-27T01:18:52.040Z,29.92
2023-01-27T01:21:19.522Z,29.63
2023-01-27T01:23:46.848Z,30.92
2023-01-27T01:26:16.420Z,31.73
2023-01-27T01:28:45.207Z,30.38
2023-01-27T01:31:17.682Z,30.55
2023-01-27T01:33:45.651Z,33.80
2023-01-27T01:36:15.980Z,31.70
2023-01-27T01:38:43.743Z,30.20
2023-01-27T01:41:15.156Z,29.58
2023-01-27T01:43:42.678Z,27.42
2023-01-27T01:46:11.502Z,29.73
2023-01-27T01:48:48.429Z,30.13
2023-01-27T01:51:34.810Z,30.45
2023-01-27T01:54:04.519Z,29.98
2023-01-27T01:56:38.091Z,30.08
2023-01-27T01:59:11.553Z,29.50
2023-01-27T02:01:39.030Z,30.85
2023-01-27T02:04:11.889Z,31.35
2023-01-27T02:06:45.603Z,30.88
2023-01-27T02:09:12.868Z,29.35
2023-01-27T02:11:40.512Z,27.33
2023-01-27T02:14:09.013Z,29.23
2023-01-27T02:16:37.327Z,28.38
2023-01-27T02:19:05.861Z,26.38
2023-01-27T02:21:33.632Z,28.13
2023-01-27T02:24:12.163Z,32.97
2023-01-27T02:26:44.642Z,26.58
2023-01-27T02:29:15.105Z,28.15
2023-01-27T02:31:42.868Z,30.48
2023-01-27T02:34:16.641Z,28.55
2023-01-27T02:36:49.628Z,30.77
2023-01-27T02:39:21.887Z,30.15
2023-01-27T02:41:52.476Z,25.17
2023-01-27T02:44:19.705Z,28.25
2023-01-27T02:46:47.208Z,28.20
2023-01-27T02:49:14.986Z,31.08
2023-01-27T02:51:42.668Z,27.40
2023-01-27T02:54:09.940Z,26.50
2023-01-27T02:56:37.395Z,27.17
2023-01-27T02:59:04.819Z,24.83
2023-01-27T03:01:35.462Z,26.95
2023-01-27T03:04:03.728Z,27.00
2023-01-27T03:06:31.227Z,30.10
2023-01-27T03:08:58.415Z,27.95
2023-01-27T03:11:44.676Z,26.67
2023-01-27T03:14:11.940Z,27.52
2023-01-27T03:16:58.107Z,25.27
2023-01-27T03:19:26.693Z,26.52
2023-01-27T03:21:54.582Z,25.45
2023-01-27T03:24:22.380Z,26.13
2023-01-27T03:26:50.235Z,26.38
2023-01-27T03:29:36.091Z,26.80
2023-01-27T03:32:03.710Z,27.38
2023-01-27T03:34:30.981Z,26.38
2023-01-27T03:37:17.484Z,27.13
2023-01-27T03:40:03.353Z,24.50
2023-01-27T03:42:49.359Z,26.95
2023-01-27T03:45:35.873Z,27.38
2023-01-27T03:48:03.405Z,25.63
2023-01-27T03:50:43.452Z,25.95
2023-01-27T03:53:11.385Z,26.80
2023-01-27T03:55:39.192Z,25.95
2023-01-27T03:58:44.535Z,24.60
2023-01-27T04:01:19.000Z,26.38
2023-01-27T04:04:06.435Z,28.60
2023-01-27T04:06:55.131Z,25.65
2023-01-27T04:09:41.028Z,25.40
2023-01-27T04:12:10.302Z,25.48
2023-01-27T04:14:41.927Z,25.40
2023-01-27T04:17:14.368Z,25.05
2023-01-27T04:19:41.985Z,25.58
2023-01-27T04:22:11.218Z,25.92
2023-01-27T04:24:38.819Z,27.10
2023-01-27T04:27:20.158Z,25.80
2023-01-27T04:29:47.867Z,26.27
2023-01-27T04:32:15.266Z,26.02
2023-01-27T04:34:42.802Z,25.85
2023-01-27T04:37:10.433Z,23.67
2023-01-27T04:39:38.334Z,24.90
2023-01-27T04:42:06.003Z,26.20
2023-01-27T04:44:33.599Z,25.83
2023-01-27T04:47:00.842Z,25.85
2023-01-27T04:49:28.332Z,25.25
2023-01-27T04:51:55.822Z,25.15
2023-01-27T04:54:23.406Z,24.55
2023-01-27T04:56:58.812Z,25.90
2023-01-27T04:59:26.570Z,24.95
2023-01-27T05:01:53.874Z,23.70
2023-01-27T05:04:21.583Z,24.42
2023-01-27T05:06:49.103Z,25.15
2023-01-27T05:09:16.654Z,22.48
2023-01-27T05:11:43.891Z,23.98
2023-01-27T05:14:13.881Z,25.20
2023-01-27T05:16:41.188Z,25.02
2023-01-27T05:19:08.923Z,23.33
2023-01-27T05:21:36.411Z,22.67
2023-01-27T05:24:04.112Z,23.92
2023-01-27T05:26:31.438Z,23.90
2023-01-27T05:28:59.043Z,24.77
2023-01-27T05:31:31.752Z,21.38
2023-01-27T05:34:00.852Z,23.15
2023-01-27T05:36:28.771Z,23.80
2023-01-27T05:38:57.701Z,23.65
2023-01-27T05:41:25.098Z,22.45
2023-01-27T05:43:55.033Z,20.85
2023-01-27T05:46:27.828Z,22.98
2023-01-27T05:48:58.861Z,23.48
2023-01-27T05:51:28.615Z,21.27
2023-01-27T05:53:57.257Z,23.08
2023-01-27T05:56:26.384Z,22.10
2023-01-27T05:58:55.328Z,22.63
2023-01-27T06:01:25.419Z,25.45
2023-01-27T06:03:53.644Z,23.70
2023-01-27T06:06:23.608Z,21.63
2023-01-27T06:08:51.589Z,21.58
2023-01-27T06:11:21.056Z,21.95
2023-01-27T06:13:48.868Z,27.63
2023-01-27T06:16:18.147Z,27.90
2023-01-27T06:18:47.183Z,25.70
2023-01-27T06:21:15.700Z,26.42
2023-01-27T06:23:43.229Z,24.52
2023-01-27T06:26:16.509Z,24.40
2023-01-27T06:28:44.229Z,25.77
2023-01-27T06:31:14.476Z,26.52
2023-01-27T06:33:42.394Z,24.27
2023-01-27T06:36:16.307Z,23.15
2023-01-27T06:38:44.445Z,26.52
2023-01-27T06:41:11.979Z,27.48
2023-01-27T06:43:40.049Z,23.80
2023-01-27T06:46:07.345Z,25.90
2023-01-27T06:48:35.100Z,30.38
2023-01-27T06:51:02.527Z,29.35
2023-01-27T06:53:32.553Z,25.83
2023-01-27T06:56:00.971Z,27.55
2023-01-27T06:58:29.865Z,29.23
2023-01-27T07:00:57.201Z,27.58
2023-01-27T07:03:24.875Z,28.98
2023-01-27T07:05:53.270Z,26.10
2023-01-27T07:08:21.077Z,30.63
2023-01-27T07:10:48.392Z,35.22
2023-01-27T07:13:16.053Z,24.83
2023-01-27T07:15:43.698Z,31.98
2023-01-27T07:18:13.675Z,25.40
2023-01-27T07:20:41.647Z,25.70
2023-01-27T07:23:10.099Z,24.90
2023-01-27T07:25:37.465Z,26.67
2023-01-27T07:28:05.789Z,22.80
2023-01-27T07:30:34.087Z,20.83
2023-01-27T07:33:10.335Z,23.80
2023-01-27T07:35:39.145Z,27.67
2023-01-27T07:38:07.210Z,28.08
2023-01-27T07:40:35.644Z,27.88
2023-01-27T07:43:03.373Z,23.08
2023-01-27T07:45:30.951Z,22.50
2023-01-27T07:48:06.350Z,30.60
2023-01-27T07:50:34.853Z,21.45
2023-01-27T07:53:04.321Z,20.02
2023-01-27T07:55:32.870Z,23.85
2023-01-27T07:58:00.131Z,22.48
2023-01-27T08:00:28.971Z,22.13
2023-01-27T08:02:58.235Z,23.23
2023-01-27T08:05:26.703Z,20.85
2023-01-27T08:07:57.632Z,20.40
2023-01-27T08:10:26.417Z,22.98
2023-01-27T08:12:53.636Z,23.42
2023-01-27T08:15:22.190Z,24.05
2023-01-27T08:18:07.631Z,22.30
2023-01-27T08:20:35.164Z,21.20
2023-01-27T08:23:02.385Z,21.88
2023-01-27T08:25:29.889Z,20.63
2023-01-27T08:27:57.161Z,22.90
2023-01-27T08:30:25.163Z,19.00
2023-01-27T08:32:53.482Z,22.77
2023-01-27T08:35:21.122Z,23.73
2023-01-27T08:37:48.879Z,21.77
2023-01-27T08:40:17.618Z,19.20
2023-01-27T08:42:44.913Z,22.52
2023-01-27T08:45:12.819Z,19.00
2023-01-27T08:47:40.073Z,20.45
2023-01-27T08:50:08.666Z,21.88
2023-01-27T08:52:35.976Z,20.15
2023-01-27T08:55:03.691Z,18.77
2023-01-27T08:57:32.433Z,21.60
2023-01-27T09:00:00.326Z,22.10
2023-01-27T09:02:27.795Z,20.08
2023-01-27T09:04:55.407Z,21.35
2023-01-27T09:07:22.656Z,18.92
2023-01-27T09:09:51.264Z,20.73
2023-01-27T09:12:23.268Z,18.80
2023-01-27T09:14:50.743Z,22.77
2023-01-27T09:17:19.697Z,22.13
2023-01-27T09:19:47.197Z,20.25
2023-01-27T09:22:14.350Z,20.60
2023-01-27T09:24:41.922Z,19.20
2023-01-27T09:27:09.111Z,20.35
2023-01-27T09:29:36.822Z,22.08
2023-01-27T09:32:04.184Z,18.77
2023-01-27T09:34:31.818Z,20.52
2023-01-27T09:37:05.056Z,21.67
2023-01-27T09:39:36.691Z,19.52
2023-01-27T09:42:14.054Z,19.08
2023-01-27T09:44:57.149Z,20.35
2023-01-27T09:47:59.517Z,23.75
2023-01-27T09:50:43.654Z,19.80
2023-01-27T09:53:29.074Z,20.88
2023-01-27T09:56:20.351Z,20.70
2023-01-27T09:58:56.665Z,19.98
2023-01-27T10:01:45.860Z,20.80
2023-01-27T10:04:36.268Z,18.42
2023-01-27T10:07:32.307Z,18.70
2023-01-27T10:10:02.334Z,19.58
2023-01-27T10:12:37.638Z,20.15
2023-01-27T10:18:03.927Z,20.17
2023-01-27T10:20:37.815Z,19.33
2023-01-27T10:23:05.320Z,23.33
2023-01-27T10:25:35.490Z,19.30
2023-01-27T10:28:15.001Z,22.55
2023-01-27T10:31:02.094Z,20.40
2023-01-27T10:33:39.316Z,18.73
2023-01-27T10:36:18.376Z,19.40
2023-01-27T10:38:46.628Z,20.77
2023-01-27T10:41:36.322Z,20.55
2023-01-27T10:44:12.782Z,21.98
2023-01-27T10:46:58.252Z,21.08
2023-01-27T10:49:32.271Z,20.67
2023-01-27T10:52:09.198Z,21.90
2023-01-27T10:54:44.926Z,18.75
2023-01-27T10:57:18.015Z,21.52
2023-01-27T11:00:18.344Z,18.90
2023-01-27T11:02:54.483Z,19.17
2023-01-27T11:05:28.650Z,20.02
2023-01-27T11:08:06.011Z,18.42
2023-01-27T11:10:38.827Z,19.55
2023-01-27T11:13:09.889Z,21.15
2023-01-27T11:15:38.388Z,22.70
2023-01-27T11:18:18.789Z,18.00
2023-01-27T11:20:54.489Z,21.00
2023-01-27T11:23:27.340Z,20.52
2023-01-27T11:26:26.127Z,19.15
2023-01-27T11:29:14.633Z,23.02
2023-01-27T11:31:55.027Z,18.33
2023-01-27T11:34:46.390Z,21.25
2023-01-27T11:37:18.975Z,20.67
2023-01-27T11:39:46.544Z,21.02
2023-01-27T11:42:15.128Z,21.75
2023-01-27T11:44:43.823Z,21.85
2023-01-27T11:47:26.961Z,21.55
2023-01-27T11:49:56.410Z,23.08
2023-01-27T11:52:28.896Z,22.45
2023-01-27T11:55:07.186Z,21.85
2023-01-27T11:57:38.029Z,22.30
2023-01-27T12:00:12.221Z,21.02
2023-01-27T12:02:50.097Z,22.35
2023-01-27T12:05:21.793Z,21.58
2023-01-27T12:07:56.467Z,21.08
2023-01-27T12:10:44.340Z,21.10
2023-01-27T12:13:20.100Z,18.90
2023-01-27T12:15:58.689Z,21.90
2023-01-27T12:18:26.969Z,21.08
2023-01-27T12:21:03.686Z,23.67
2023-01-27T12:23:36.370Z,22.55
2023-01-27T12:26:08.132Z,20.33
2023-01-27T12:28:43.282Z,21.33
2023-01-27T12:31:20.188Z,21.95
2023-01-27T12:34:02.258Z,22.17
2023-01-27T12:36:36.290Z,19.55
2023-01-27T12:39:03.805Z,18.70
2023-01-27T12:41:33.207Z,22.95
2023-01-27T12:44:18.539Z,24.17
2023-01-27T12:47:27.646Z,19.95
2023-01-27T12:50:22.544Z,21.88
2023-01-27T12:53:00.529Z,21.23
2023-01-27T12:55:38.432Z,21.42
2023-01-27T12:58:05.878Z,21.30
2023-01-27T13:00:34.725Z,21.85
2023-01-27T13:03:11.798Z,20.95
2023-01-27T13:05:42.902Z,20.83
2023-01-27T13:08:17.342Z,22.70
2023-01-27T13:10:59.723Z,20.90
2023-01-27T13:13:29.497Z,20.65
2023-01-27T13:16:06.852Z,22.38
2023-01-27T13:18:38.891Z,21.15
2023-01-27T13:21:18.752Z,20.90
2023-01-27T13:23:48.605Z,21.27
2023-01-27T13:26:21.069Z,21.50
2023-01-27T13:28:58.303Z,20.95
2023-01-27T13:31:42.896Z,21.27
2023-01-27T13:34:16.117Z,22.42
2023-01-27T13:36:56.698Z,21.38
2023-01-27T13:39:28.397Z,20.80
2023-01-27T13:42:05.150Z,21.92
2023-01-27T13:44:44.770Z,21.30
2023-01-27T13:47:47.149Z,20.23
2023-01-27T13:50:24.102Z,20.60
2023-01-27T13:52:55.482Z,23.30
2023-01-27T13:55:47.295Z,21.08
2023-01-27T13:58:44.428Z,19.60
2023-01-27T14:01:26.966Z,18.67
2023-01-27T14:04:16.343Z,21.60
2023-01-27T14:06:52.375Z,19.90
2023-01-27T14:09:30.019Z,19.55
2023-01-27T14:12:23.270Z,19.23
2023-01-27T14:15:19.758Z,20.15
2023-01-27T14:18:23.484Z,21.02
2023-01-27T14:21:14.089Z,21.42
2023-01-27T14:24:04.736Z,20.58
2023-01-27T14:26:43.708Z,19.55
2023-01-27T14:29:14.658Z,19.35
2023-01-27T14:31:54.263Z,18.25
2023-01-27T14:34:21.462Z,20.27
2023-01-27T14:36:55.806Z,20.50
2023-01-27T14:39:29.025Z,19.50
2023-01-27T14:42:14.099Z,20.70
2023-01-27T14:45:04.464Z,18.30
2023-01-27T14:48:10.884Z,20.20
2023-01-27T14:51:07.952Z,17.13
2023-01-27T14:53:59.423Z,18.38
2023-01-27T14:56:58.628Z,17.58
2023-01-27T14:59:52.273Z,20.13
2023-01-27T15:02:28.514Z,17.77
2023-01-27T15:05:08.408Z,19.48
2023-01-27T15:08:02.143Z,18.42
2023-01-27T15:10:32.137Z,19.00
2023-01-27T15:13:38.079Z,17.85
2023-01-27T15:16:33.481Z,18.13
2023-01-27T15:19:47.375Z,18.45
2023-01-27T15:22:30.825Z,18.45
2023-01-27T15:25:13.564Z,16.80
2023-01-27T15:27:42.292Z,18.88
2023-01-27T15:30:27.837Z,18.33
2023-01-27T15:32:55.557Z,19.13
2023-01-27T15:35:26.315Z,16.02
2023-01-27T15:38:01.180Z,16.02
2023-01-27T15:40:28.652Z,18.38
2023-01-27T15:43:00.530Z,16.83
2023-01-27T15:45:39.164Z,17.35
2023-01-27T15:48:13.502Z,18.05
2023-01-27T15:51:07.826Z,20.58
2023-01-27T15:53:38.651Z,19.70
2023-01-27T15:56:06.547Z,22.08
2023-01-27T15:58:39.707Z,19.38
2023-01-27T16:01:23.299Z,20.40
2023-01-27T16:03:53.060Z,19.95
2023-01-27T16:06:25.528Z,21.40
2023-01-27T16:09:06.405Z,18.02
2023-01-27T16:11:33.634Z,16.58
2023-01-27T16:14:13.675Z,20.00
2023-01-27T16:16:45.570Z,19.13
2023-01-27T16:19:23.018Z,20.95
2023-01-27T16:22:06.162Z,17.65
2023-01-27T16:24:41.337Z,19.80
2023-01-27T16:27:22.341Z,20.60
2023-01-27T16:30:19.747Z,21.90
2023-01-27T16:33:16.369Z,18.60
2023-01-27T16:35:58.182Z,20.95
2023-01-27T16:38:57.701Z,18.40
2023-01-27T16:41:28.672Z,20.15
2023-01-27T16:44:04.103Z,19.10
2023-01-27T16:46:41.735Z,19.23
2023-01-27T16:49:32.783Z,16.58
2023-01-27T16:52:03.699Z,18.58
2023-01-27T16:54:37.701Z,19.00
2023-01-27T16:57:07.410Z,18.20
2023-01-27T16:59:38.348Z,18.35
2023-01-27T17:02:20.047Z,22.10
2023-01-27T17:04:53.911Z,21.48
2023-01-27T17:07:21.664Z,19.05
2023-01-27T17:09:55.603Z,19.70
2023-01-27T17:12:28.986Z,20.30
2023-01-27T17:14:58.064Z,18.42
2023-01-27T17:17:28.750Z,20.60
2023-01-27T17:20:04.227Z,16.58
2023-01-27T17:22:39.261Z,18.33
2023-01-27T17:25:15.123Z,19.17
2023-01-27T17:27:44.862Z,18.60
2023-01-27T17:30:18.320Z,17.95
2023-01-27T17:32:49.379Z,17.30
2023-01-27T17:35:21.404Z,21.10
2023-01-27T17:37:49.738Z,17.70
2023-01-27T17:40:22.562Z,17.92
2023-01-27T17:42:50.193Z,16.35
2023-01-27T17:45:34.747Z,17.73
2023-01-27T17:48:02.285Z,16.50
2023-01-27T17:50:37.887Z,19.92
2023-01-27T17:53:11.421Z,17.00
2023-01-27T17:55:39.422Z,16.75
2023-01-27T17:58:16.548Z,17.40
2023-01-27T18:00:45.689Z,17.58
2023-01-27T18:03:25.439Z,16.50
2023-01-27T18:05:54.723Z,18.17
2023-01-27T18:08:23.668Z,19.73
2023-01-27T18:10:51.521Z,22.83
2023-01-27T18:13:19.010Z,18.38
2023-01-27T18:15:51.978Z,18.20
2023-01-27T18:18:21.527Z,17.58
2023-01-27T18:20:53.768Z,18.75
2023-01-27T18:23:35.788Z,18.80
2023-01-27T18:26:07.933Z,18.65
2023-01-27T18:28:38.059Z,19.80
2023-01-27T18:31:13.609Z,18.95
2023-01-27T18:33:42.989Z,19.13
2023-01-27T18:36:24.828Z,18.40
2023-01-27T18:38:54.341Z,19.58
2023-01-27T18:41:27.348Z,19.63
2023-01-27T18:43:55.579Z,18.73
2023-01-27T18:46:25.223Z,20.88
2023-01-27T18:48:54.137Z,16.67
2023-01-27T18:51:21.668Z,18.35
2023-01-27T18:53:49.418Z,17.50
2023-01-27T18:56:16.779Z,19.92
2023-01-27T18:58:44.288Z,19.20
2023-01-27T19:01:19.922Z,20.35
2023-01-27T19:03:47.588Z,19.63
2023-01-27T19:06:18.965Z,19.38
2023-01-27T19:08:48.890Z,18.92
2023-01-27T19:11:16.668Z,19.65
2023-01-27T19:13:45.204Z,18.92
2023-01-27T19:16:16.072Z,16.42
2023-01-27T19:18:44.886Z,19.60
2023-01-27T19:21:16.822Z,18.33
2023-01-27T19:23:44.440Z,19.00
2023-01-27T19:26:17.635Z,19.88
2023-01-27T19:28:52.265Z,16.70
2023-01-27T19:31:19.927Z,17.95
2023-01-27T19:33:47.597Z,17.77
2023-01-27T19:36:21.680Z,18.58
2023-01-27T19:38:55.067Z,18.08
2023-01-27T19:41:22.344Z,16.00
2023-01-27T19:43:50.475Z,18.23
2023-01-27T19:46:22.070Z,18.10
2023-01-27T19:48:49.859Z,17.10
2023-01-27T19:51:17.925Z,17.98
2023-01-27T19:53:46.602Z,17.50
2023-01-27T19:56:19.709Z,18.75
2023-01-27T19:58:52.645Z,18.80
2023-01-27T20:01:22.327Z,19.48
2023-01-27T20:03:50.765Z,17.38
2023-01-27T20:06:23.328Z,20.13
2023-01-27T20:08:54.396Z,16.13
2023-01-27T20:11:36.761Z,17.85
2023-01-27T20:14:19.218Z,17.85
2023-01-27T20:16:47.091Z,17.90
2023-01-27T20:19:16.328Z,18.27
2023-01-27T20:21:45.661Z,16.55
2023-01-27T20:24:18.390Z,16.08
2023-01-27T20:26:46.048Z,19.83
2023-01-27T20:29:14.133Z,18.30
2023-01-27T20:31:42.311Z,19.27
2023-01-27T20:34:09.910Z,17.38
2023-01-27T20:36:37.188Z,17.60
2023-01-27T20:39:04.737Z,17.98
2023-01-27T20:41:32.121Z,19.48
2023-01-27T20:44:02.796Z,18.42
2023-01-27T20:46:30.642Z,17.42
2023-01-27T20:48:59.524Z,16.98
2023-01-27T20:51:26.866Z,17.58
2023-01-27T20:53:54.876Z,14.43
2023-01-27T20:56:24.134Z,18.88
2023-01-27T20:58:52.140Z,16.17
2023-01-27T21:01:21.903Z,14.80
2023-01-27T21:03:50.532Z,14.20
2023-01-27T21:06:20.021Z,14.82
2023-01-27T21:08:49.487Z,13.15
2023-01-27T21:11:18.618Z,13.02
2023-01-27T21:13:47.535Z,20.38
2023-01-27T21:16:15.015Z,13.85
2023-01-27T21:18:44.126Z,12.98
2023-01-27T21:21:28.392Z,23.20
2023-01-27T21:23:57.626Z,13.00
2023-01-27T21:26:24.981Z,13.52
2023-01-27T21:28:53.271Z,15.07
2023-01-27T21:31:24.394Z,13.45
2023-01-27T21:33:52.037Z,15.30
2023-01-27T21:36:19.423Z,13.32
2023-01-27T21:38:47.233Z,18.23
2023-01-27T21:41:36.316Z,13.23
2023-01-27T21:44:24.371Z,13.77
2023-01-27T21:46:51.691Z,15.05
2023-01-27T21:49:19.247Z,12.52
2023-01-27T21:51:48.631Z,12.70
2023-01-27T21:54:17.393Z,12.30
2023-01-27T21:56:44.571Z,12.77
2023-01-27T21:59:12.141Z,14.38
2023-01-27T22:01:39.777Z,12.27
2023-01-27T22:04:07.299Z,13.18
2023-01-27T22:06:36.653Z,12.32
2023-01-27T22:09:06.207Z,14.35
2023-01-27T22:11:33.603Z,12.43
2023-01-27T22:14:01.137Z,13.48
2023-01-27T22:16:28.451Z,11.85
2023-01-27T22:18:56.883Z,15.30
2023-01-27T22:21:24.319Z,12.77
2023-01-27T22:23:51.934Z,15.40
2023-01-27T22:26:20.705Z,13.38
2023-01-27T22:28:48.449Z,13.30
2023-01-27T22:31:15.851Z,12.48
2023-01-27T22:33:43.377Z,12.10
2023-01-27T22:36:11.683Z,11.82
2023-01-27T22:38:39.377Z,14.15
2023-01-27T22:41:06.639Z,13.32
2023-01-27T22:43:34.219Z,11.13
2023-01-27T22:46:03.421Z,13.63
2023-01-27T22:48:31.328Z,13.05
2023-01-27T22:51:03.451Z,12.50
2023-01-27T22:53:31.491Z,12.07
2023-01-27T22:56:00.477Z,12.85
2023-01-27T22:58:28.024Z,11.98
2023-01-27T23:00:55.806Z,12.90
2023-01-27T23:03:23.718Z,11.80
2023-01-27T23:05:51.154Z,10.65
2023-01-27T23:08:21.505Z,12.48
2023-01-27T23:10:49.665Z,16.75
2023-01-27T23:13:17.211Z,12.82
2023-01-27T23:15:44.428Z,12.23
2023-01-27T23:18:11.922Z,10.85
2023-01-27T23:20:40.356Z,13.85
2023-01-27T23:23:09.434Z,13.85
2023-01-27T23:25:41.188Z,14.05
2023-01-27T23:28:08.658Z,12.63
2023-01-27T23:30:36.596Z,13.32
2023-01-27T23:33:04.138Z,11.57
2023-01-27T23:35:31.365Z,13.38
2023-01-27T23:37:58.986Z,12.73
2023-01-27T23:40:26.204Z,13.88
2023-01-27T23:42:53.692Z,11.23
2023-01-27T23:45:20.889Z,12.40
2023-01-27T23:47:48.370Z,14.77
2023-01-27T23:50:15.862Z,11.45
2023-01-27T23:52:43.307Z,12.95
2023-01-27T23:55:12.971Z,13.70
2023-01-27T23:57:40.861Z,13.38
